Αρχική σελίδα
METAR-TAF:

METAR-TAF

Αεροδρόμια :

Aden, Υεμένη

γεωγραφικό πλάτος: 12-40N, γεωγραφικό μήκος: 045-02E, υψόμετρο: 3 μ

Παρών καιρός

Η αναφορά έγινε 59 λεπτά πριν, στις 18:00 UTC
Άνεμος 4 kt από Α
Θερμοκρασία 33°C
Υγρασία 71%
Πίεση 1004 hPa
Ορατότητα: 5000 μ
Λίγα νέφη σε ύψος 1800 πόδια
εκτεταμένη σκόνη,

METAR: OYAA 301800Z 09004KT 5000 DU FEW018 33/27 Q1004 NOSIG

Χρόνος: 21:59 (18:59 UTC)


TAF: λείπει

Μετεωρολογικές αναφορές και προγνώσεις για περισσότερα από 4000 αεροδρόμια (δελτία METAR και TAF).

Οι διαθέσιμοι σταθμοί απεικονίζονται στο χάρτη με κίτρινες και κόκκινες κουκκίδες.

Μετακινήστε το ποντίκι πάνω από τις κουκκίδες για να δείτε το όνομα του σταθμού.

Στη συνέχεια, κάντε κλικ για να δείτε τις μετεωρολογικές αναφορές και τις προγνώσεις καιρού.

Για να αλλάξετε το χάρτη: κάντε κλικ στα πράσινα κουμπιά με τον μαύρο σταυρό για να ζουμάρετε, στο πράσινο κουμπί με την παύλα για να αφαιρέσετε το ζουμ ή στα πράσινα βέλη για να αντιπαραβάλλετε χάρτες.


METAR-TAF: